createdAt,value
2022-08-26T00:00:40.992Z,8.63
2022-08-26T00:01:29.626Z,8.65
2022-08-26T00:02:17.028Z,9.27
2022-08-26T00:03:07.848Z,8.68
2022-08-26T00:03:56.766Z,8.73
2022-08-26T00:04:44.692Z,9.07
2022-08-26T00:05:31.855Z,8.73
2022-08-26T00:06:20.897Z,9.32
2022-08-26T00:07:08.191Z,8.55
2022-08-26T00:07:56.122Z,9.00
2022-08-26T00:08:43.471Z,8.40
2022-08-26T00:10:26.272Z,8.70
2022-08-26T00:11:13.942Z,9.07
2022-08-26T00:12:00.941Z,8.63
2022-08-26T00:12:48.101Z,9.05
2022-08-26T00:13:35.342Z,9.07
2022-08-26T00:14:28.260Z,9.20
2022-08-26T00:15:19.171Z,9.25
2022-08-26T00:16:59.281Z,8.23
2022-08-26T00:17:46.904Z,8.57
2022-08-26T00:18:38.804Z,9.05
2022-08-26T00:19:28.418Z,8.93
2022-08-26T00:20:18.881Z,8.57
2022-08-26T00:21:53.742Z,8.15
2022-08-26T00:22:40.912Z,8.77
2022-08-26T00:23:28.857Z,8.00
2022-08-26T00:24:16.392Z,9.20
2022-08-26T00:25:05.920Z,8.23
2022-08-26T00:25:53.622Z,9.02
2022-08-26T00:26:41.435Z,9.07
2022-08-26T00:27:28.452Z,8.45
2022-08-26T00:28:15.383Z,8.57
2022-08-26T00:29:06.231Z,9.68
2022-08-26T00:29:53.062Z,8.73
2022-08-26T00:30:40.383Z,8.77
2022-08-26T00:31:27.435Z,9.07
2022-08-26T00:32:14.391Z,9.23
2022-08-26T00:33:02.433Z,8.85
2022-08-26T00:33:49.563Z,9.48
2022-08-26T00:34:36.612Z,9.05
2022-08-26T00:35:24.592Z,8.80
2022-08-26T00:36:20.433Z,8.85
2022-08-26T00:37:08.962Z,9.32
2022-08-26T00:37:57.991Z,9.02
2022-08-26T00:38:44.854Z,9.23
2022-08-26T00:39:32.872Z,9.38
2022-08-26T00:40:25.645Z,8.93
2022-08-26T00:41:12.911Z,8.32
2022-08-26T00:42:00.771Z,9.05
2022-08-26T00:42:50.132Z,9.45
2022-08-26T00:43:46.287Z,8.73
2022-08-26T00:44:34.833Z,9.73
2022-08-26T00:45:22.001Z,8.60
2022-08-26T00:46:18.952Z,8.75
2022-08-26T00:47:08.462Z,8.90
2022-08-26T00:48:00.991Z,8.90
2022-08-26T00:48:53.866Z,9.55
2022-08-26T00:49:44.974Z,9.18
2022-08-26T00:50:36.752Z,8.82
2022-08-26T00:51:29.789Z,8.30
2022-08-26T00:52:20.121Z,9.13
2022-08-26T00:53:24.162Z,9.43
2022-08-26T00:54:13.245Z,8.45
2022-08-26T00:55:04.871Z,9.27
2022-08-26T00:56:08.288Z,8.38
2022-08-26T00:56:56.211Z,9.45
2022-08-26T00:57:44.401Z,9.07
2022-08-26T00:58:34.104Z,9.05
2022-08-26T00:59:21.912Z,8.70
2022-08-26T01:00:16.884Z,9.27
2022-08-26T01:01:04.426Z,9.38
2022-08-26T01:01:51.862Z,9.23
2022-08-26T01:02:39.459Z,8.85
2022-08-26T01:03:35.052Z,9.75
2022-08-26T01:04:23.521Z,9.13
2022-08-26T01:05:13.208Z,8.95
2022-08-26T01:06:01.702Z,8.88
2022-08-26T01:06:50.464Z,9.00
2022-08-26T01:07:39.622Z,8.85
2022-08-26T01:08:27.422Z,9.88
2022-08-26T01:09:14.811Z,8.68
2022-08-26T01:10:04.172Z,9.85
2022-08-26T01:10:52.532Z,8.63
2022-08-26T01:11:42.991Z,9.20
2022-08-26T01:12:34.381Z,8.80
2022-08-26T01:13:21.603Z,8.90
2022-08-26T01:14:08.913Z,8.43
2022-08-26T01:14:56.323Z,9.05
2022-08-26T01:15:46.742Z,10.13
2022-08-26T01:16:33.654Z,8.80
2022-08-26T01:17:20.605Z,9.38
2022-08-26T01:18:08.093Z,9.25
2022-08-26T01:18:59.582Z,9.35
2022-08-26T01:19:50.741Z,9.65
2022-08-26T01:21:03.823Z,9.23
2022-08-26T01:21:56.952Z,8.98
2022-08-26T01:23:04.148Z,8.73
2022-08-26T01:23:52.282Z,9.23
2022-08-26T01:24:44.742Z,9.63
2022-08-26T01:25:34.122Z,9.02
2022-08-26T01:26:34.071Z,9.35
2022-08-26T01:27:22.221Z,9.55
2022-08-26T01:28:17.566Z,8.77
2022-08-26T01:29:06.243Z,9.52
2022-08-26T01:29:53.211Z,9.30
2022-08-26T01:30:41.012Z,9.95
2022-08-26T01:31:31.688Z,9.75
2022-08-26T01:32:20.473Z,10.50
2022-08-26T01:33:11.894Z,9.18
2022-08-26T01:34:35.422Z,9.50
2022-08-26T01:35:22.462Z,8.98
2022-08-26T01:36:09.572Z,9.88
2022-08-26T01:37:07.791Z,9.48
2022-08-26T01:37:58.623Z,9.82
2022-08-26T01:38:45.721Z,9.25
2022-08-26T01:39:33.671Z,9.38
2022-08-26T01:40:26.948Z,8.98
2022-08-26T01:41:16.285Z,8.80
2022-08-26T01:42:10.782Z,9.15
2022-08-26T01:42:58.871Z,8.57
2022-08-26T01:43:47.382Z,9.32
2022-08-26T01:44:41.074Z,9.30
2022-08-26T01:45:31.109Z,8.85
2022-08-26T01:46:19.185Z,9.23
2022-08-26T01:47:06.933Z,8.85
2022-08-26T01:47:56.765Z,8.95
2022-08-26T01:48:48.062Z,9.38
2022-08-26T01:49:41.149Z,9.43
2022-08-26T01:50:33.144Z,9.45
2022-08-26T01:51:20.703Z,9.65
2022-08-26T01:52:09.221Z,8.90
2022-08-26T01:53:04.093Z,9.40
2022-08-26T01:53:51.151Z,10.18
2022-08-26T01:54:39.619Z,9.30
2022-08-26T01:55:32.179Z,9.07
2022-08-26T01:56:22.392Z,9.38
2022-08-26T01:57:09.591Z,9.95
2022-08-26T01:57:57.561Z,9.20
2022-08-26T01:58:55.560Z,9.23
2022-08-26T01:59:43.195Z,9.30
2022-08-26T02:00:30.102Z,9.45
2022-08-26T02:01:17.204Z,9.27
2022-08-26T02:02:05.130Z,9.13
2022-08-26T02:03:13.750Z,9.48
2022-08-26T02:04:22.040Z,9.40
2022-08-26T02:05:13.321Z,9.10
2022-08-26T02:06:04.171Z,9.30
2022-08-26T02:06:51.590Z,9.75
2022-08-26T02:07:40.016Z,10.45
2022-08-26T02:08:33.301Z,9.13
2022-08-26T02:09:20.383Z,9.05
2022-08-26T02:10:10.381Z,9.38
2022-08-26T02:10:57.417Z,10.05
2022-08-26T02:11:45.333Z,9.90
2022-08-26T02:12:32.200Z,10.02
2022-08-26T02:13:19.091Z,9.63
2022-08-26T02:14:11.552Z,9.35
2022-08-26T02:15:01.408Z,9.27
2022-08-26T02:15:53.529Z,9.05
2022-08-26T02:16:42.765Z,9.70
2022-08-26T02:17:34.666Z,9.85
2022-08-26T02:18:22.877Z,9.48
2022-08-26T02:19:17.039Z,10.13
2022-08-26T02:20:05.061Z,9.25
2022-08-26T02:20:53.162Z,8.80
2022-08-26T02:21:41.291Z,9.55
2022-08-26T02:22:29.020Z,9.55
2022-08-26T02:23:15.951Z,9.27
2022-08-26T02:24:12.032Z,9.38
2022-08-26T02:25:05.611Z,9.23
2022-08-26T02:26:04.891Z,9.52
2022-08-26T02:26:52.120Z,9.18
2022-08-26T02:27:39.093Z,9.10
2022-08-26T02:28:28.354Z,9.63
2022-08-26T02:29:37.051Z,10.13
2022-08-26T02:30:28.539Z,9.70
2022-08-26T02:31:15.548Z,9.07
2022-08-26T02:32:02.661Z,9.80
2022-08-26T02:32:51.682Z,9.90
2022-08-26T02:33:43.011Z,10.07
2022-08-26T02:34:35.251Z,9.35
2022-08-26T02:35:23.832Z,9.95
2022-08-26T02:36:12.147Z,9.55
2022-08-26T02:37:02.132Z,9.88
2022-08-26T02:37:50.561Z,9.30
2022-08-26T02:38:37.512Z,9.93
2022-08-26T02:39:27.223Z,9.75
2022-08-26T02:40:16.101Z,9.70
2022-08-26T02:41:03.407Z,8.93
2022-08-26T02:41:50.552Z,10.07
2022-08-26T02:42:37.838Z,10.48
2022-08-26T02:43:31.504Z,9.70
2022-08-26T02:44:19.840Z,9.68
2022-08-26T02:45:07.732Z,9.98
2022-08-26T02:45:54.802Z,10.25
2022-08-26T02:46:42.190Z,10.43
2022-08-26T02:47:34.321Z,10.00
2022-08-26T02:48:21.751Z,10.43
2022-08-26T02:49:09.972Z,10.77
2022-08-26T02:49:56.773Z,9.82
2022-08-26T02:50:44.013Z,10.43
2022-08-26T02:51:31.154Z,9.73
2022-08-26T02:52:20.352Z,9.50
2022-08-26T02:53:08.759Z,9.80
2022-08-26T02:53:55.734Z,9.80
2022-08-26T02:54:42.871Z,9.93
2022-08-26T02:55:29.841Z,9.93
2022-08-26T02:56:16.761Z,9.88
2022-08-26T02:57:03.932Z,9.20
2022-08-26T02:57:53.532Z,10.15
2022-08-26T02:58:40.540Z,9.40
2022-08-26T02:59:29.519Z,8.95
2022-08-26T03:00:17.213Z,10.88
2022-08-26T03:01:04.869Z,9.73
2022-08-26T03:01:52.612Z,9.52
2022-08-26T03:02:42.971Z,9.68
2022-08-26T03:03:30.341Z,11.05
2022-08-26T03:04:17.303Z,9.40
2022-08-26T03:05:04.591Z,10.05
2022-08-26T03:05:52.673Z,9.85
2022-08-26T03:06:39.797Z,10.07
2022-08-26T03:07:28.412Z,9.70
2022-08-26T03:08:15.751Z,10.23
2022-08-26T03:09:02.670Z,11.02
2022-08-26T03:09:50.331Z,10.05
2022-08-26T03:10:39.461Z,9.75
2022-08-26T03:11:30.947Z,9.60
2022-08-26T03:12:20.562Z,9.68
2022-08-26T03:13:07.707Z,10.27
2022-08-26T03:13:55.429Z,10.05
2022-08-26T03:14:42.411Z,9.82
2022-08-26T03:15:29.363Z,10.18
2022-08-26T03:16:16.770Z,10.43
2022-08-26T03:17:04.180Z,9.45
2022-08-26T03:17:51.062Z,11.05
2022-08-26T03:18:38.113Z,9.70
2022-08-26T03:19:26.339Z,10.32
2022-08-26T03:20:13.764Z,9.40
2022-08-26T03:21:07.212Z,10.25
2022-08-26T03:21:57.748Z,9.70
2022-08-26T03:22:45.674Z,9.73
2022-08-26T03:23:33.351Z,9.57
2022-08-26T03:24:21.452Z,9.27
2022-08-26T03:25:11.703Z,9.45
2022-08-26T03:25:58.595Z,9.75
2022-08-26T03:26:51.991Z,10.20
2022-08-26T03:27:39.861Z,9.90
2022-08-26T03:28:29.861Z,10.38
2022-08-26T03:29:35.384Z,10.13
2022-08-26T03:30:45.489Z,9.40
2022-08-26T03:31:32.700Z,10.00
2022-08-26T03:32:20.858Z,11.05
2022-08-26T03:33:10.332Z,9.98
2022-08-26T03:33:59.818Z,9.82
2022-08-26T03:34:47.012Z,9.65
2022-08-26T03:35:34.911Z,9.40
2022-08-26T03:36:22.352Z,10.05
2022-08-26T03:37:09.224Z,9.40
2022-08-26T03:37:56.594Z,9.70
2022-08-26T03:38:44.141Z,9.90
2022-08-26T03:39:32.613Z,10.00
2022-08-26T03:40:20.576Z,10.00
2022-08-26T03:41:09.213Z,10.15
2022-08-26T03:41:56.022Z,11.25
2022-08-26T03:42:45.402Z,10.30
2022-08-26T03:43:32.312Z,9.90
2022-08-26T03:44:19.382Z,9.38
2022-08-26T03:45:09.054Z,8.90
2022-08-26T03:45:55.831Z,10.45
2022-08-26T03:46:42.793Z,9.40
2022-08-26T03:47:31.831Z,9.85
2022-08-26T03:48:19.071Z,10.20
2022-08-26T03:49:06.311Z,9.57
2022-08-26T03:49:53.406Z,9.77
2022-08-26T03:50:40.671Z,10.02
2022-08-26T03:51:28.433Z,10.30
2022-08-26T03:52:15.612Z,9.38
2022-08-26T03:53:02.801Z,10.68
2022-08-26T03:53:49.601Z,9.68
2022-08-26T03:54:36.401Z,9.00
2022-08-26T03:55:26.905Z,9.13
2022-08-26T03:56:15.165Z,9.43
2022-08-26T03:57:02.312Z,9.32
2022-08-26T03:57:50.112Z,9.90
2022-08-26T03:58:37.981Z,10.18
2022-08-26T03:59:25.005Z,9.32
2022-08-26T04:00:15.461Z,9.60
2022-08-26T04:01:05.528Z,9.63
2022-08-26T04:01:54.733Z,9.10
2022-08-26T04:02:46.404Z,10.07
2022-08-26T04:03:52.449Z,10.35
2022-08-26T04:04:39.901Z,9.95
2022-08-26T04:05:28.330Z,9.30
2022-08-26T04:06:15.391Z,9.55
2022-08-26T04:07:04.152Z,9.43
2022-08-26T04:07:51.593Z,9.65
2022-08-26T04:08:38.671Z,9.30
2022-08-26T04:09:27.680Z,9.57
2022-08-26T04:10:20.258Z,9.30
2022-08-26T04:11:07.659Z,9.38
2022-08-26T04:11:55.392Z,9.75
2022-08-26T04:12:44.252Z,9.15
2022-08-26T04:13:32.541Z,9.50
2022-08-26T04:14:22.371Z,8.90
2022-08-26T04:15:12.735Z,9.65
2022-08-26T04:15:59.928Z,9.10
2022-08-26T04:16:47.542Z,8.85
2022-08-26T04:17:34.771Z,9.95
2022-08-26T04:18:22.311Z,9.82
2022-08-26T04:19:10.632Z,9.90
2022-08-26T04:19:57.861Z,9.38
2022-08-26T04:20:44.632Z,9.48
2022-08-26T04:21:31.790Z,9.27
2022-08-26T04:22:24.963Z,9.25
2022-08-26T04:23:12.032Z,10.07
2022-08-26T04:23:59.272Z,8.98
2022-08-26T04:24:50.691Z,9.20
2022-08-26T04:25:37.531Z,9.73
2022-08-26T04:26:27.361Z,9.05
2022-08-26T04:27:14.435Z,9.48
2022-08-26T04:28:01.442Z,9.32
2022-08-26T04:28:49.680Z,8.55
2022-08-26T04:29:36.571Z,8.35
2022-08-26T04:30:25.692Z,8.95
2022-08-26T04:31:14.868Z,9.15
2022-08-26T04:32:03.260Z,9.23
2022-08-26T04:32:50.181Z,8.98
2022-08-26T04:33:37.040Z,9.05
2022-08-26T04:34:29.085Z,8.63
2022-08-26T04:35:15.981Z,9.18
2022-08-26T04:36:05.591Z,9.40
2022-08-26T04:36:52.542Z,8.75
2022-08-26T04:37:39.801Z,8.88
2022-08-26T04:38:30.502Z,9.93
2022-08-26T04:39:20.291Z,9.10
2022-08-26T04:40:10.219Z,8.82
2022-08-26T04:40:57.572Z,8.75
2022-08-26T04:41:44.992Z,8.70
2022-08-26T04:42:33.473Z,9.35
2022-08-26T04:43:21.165Z,9.15
2022-08-26T04:44:08.212Z,8.77
2022-08-26T04:44:55.558Z,8.55
2022-08-26T04:45:43.764Z,9.10
2022-08-26T04:46:30.820Z,9.30
2022-08-26T04:47:17.661Z,8.20
2022-08-26T04:48:06.393Z,8.82
2022-08-26T04:48:58.043Z,8.40
2022-08-26T04:49:45.243Z,9.32
2022-08-26T04:50:32.881Z,9.57
2022-08-26T04:51:20.774Z,9.00
2022-08-26T04:52:07.562Z,8.80
2022-08-26T04:52:55.474Z,8.55
2022-08-26T04:53:42.581Z,8.68
2022-08-26T04:54:29.491Z,9.02
2022-08-26T04:55:16.352Z,7.87
2022-08-26T04:56:03.881Z,8.20
2022-08-26T04:56:51.093Z,8.07
2022-08-26T04:57:37.964Z,9.25
2022-08-26T04:58:26.251Z,8.57
2022-08-26T04:59:17.055Z,8.05
2022-08-26T05:00:06.933Z,8.48
2022-08-26T05:00:55.232Z,8.13
2022-08-26T05:01:47.149Z,7.93
2022-08-26T05:02:35.074Z,8.02
2022-08-26T05:03:22.912Z,8.00
2022-08-26T05:04:10.270Z,9.20
2022-08-26T05:04:58.879Z,8.23
2022-08-26T05:05:47.666Z,8.43
2022-08-26T05:06:36.940Z,9.65
2022-08-26T05:07:24.201Z,8.63
2022-08-26T05:08:12.410Z,8.20
2022-08-26T05:08:59.294Z,7.85
2022-08-26T05:09:46.170Z,8.35
2022-08-26T05:10:35.233Z,7.43
2022-08-26T05:11:22.183Z,8.40
2022-08-26T05:12:09.883Z,8.25
2022-08-26T05:13:00.455Z,7.57
2022-08-26T05:14:34.341Z,8.25
2022-08-26T05:15:21.252Z,8.45
2022-08-26T05:16:11.627Z,7.43
2022-08-26T05:16:58.798Z,7.70
2022-08-26T05:17:45.555Z,8.30
2022-08-26T05:18:34.322Z,7.55
2022-08-26T05:19:21.991Z,7.70
2022-08-26T05:20:09.232Z,7.68
2022-08-26T05:20:57.631Z,7.65
2022-08-26T05:21:44.462Z,7.50
2022-08-26T05:22:33.992Z,7.30
2022-08-26T05:23:22.986Z,7.60
2022-08-26T05:24:11.991Z,7.72
2022-08-26T05:24:58.731Z,7.10
2022-08-26T05:25:48.436Z,7.40
2022-08-26T05:26:35.183Z,7.28
2022-08-26T05:27:22.028Z,8.02
2022-08-26T05:28:10.508Z,7.50
2022-08-26T05:28:58.101Z,7.72
2022-08-26T05:29:45.521Z,7.93
2022-08-26T05:30:32.879Z,7.97
2022-08-26T05:31:24.337Z,7.87
2022-08-26T05:32:11.270Z,7.45
2022-08-26T05:32:58.263Z,7.60
2022-08-26T05:33:46.921Z,7.80
2022-08-26T05:34:33.822Z,7.37
2022-08-26T05:35:20.555Z,7.62
2022-08-26T05:36:11.183Z,7.57
2022-08-26T05:36:58.723Z,7.70
2022-08-26T05:37:45.572Z,7.35
2022-08-26T05:38:32.379Z,7.00
2022-08-26T05:39:20.011Z,7.07
2022-08-26T05:40:08.624Z,7.30
2022-08-26T05:40:57.934Z,8.10
2022-08-26T05:41:45.042Z,7.57
2022-08-26T05:42:33.582Z,7.32
2022-08-26T05:43:20.901Z,7.90
2022-08-26T05:44:10.371Z,7.53
2022-08-26T05:44:57.489Z,7.53
2022-08-26T05:45:47.263Z,7.55
2022-08-26T05:46:35.400Z,7.43
2022-08-26T05:47:22.335Z,8.52
2022-08-26T05:48:10.492Z,7.80
2022-08-26T05:48:57.755Z,7.35
2022-08-26T05:49:51.450Z,7.43
2022-08-26T05:50:44.199Z,7.75
2022-08-26T05:51:31.146Z,8.05
2022-08-26T05:52:18.054Z,8.32
2022-08-26T05:53:07.416Z,8.55
2022-08-26T05:53:56.282Z,8.80
2022-08-26T05:54:43.131Z,8.63
2022-08-26T05:55:30.087Z,8.00
2022-08-26T05:56:17.592Z,8.35
2022-08-26T05:57:04.632Z,8.60
2022-08-26T05:57:51.579Z,8.55
2022-08-26T05:58:40.865Z,7.80
2022-08-26T05:59:27.801Z,8.80
2022-08-26T06:00:16.331Z,8.70
2022-08-26T06:01:13.355Z,8.88
2022-08-26T06:02:00.226Z,9.40
2022-08-26T06:02:48.403Z,8.70
2022-08-26T06:03:37.572Z,8.95
2022-08-26T06:04:27.810Z,9.20
2022-08-26T06:05:16.675Z,8.82
2022-08-26T06:06:08.554Z,8.85
2022-08-26T06:06:58.142Z,8.68
2022-08-26T06:08:03.860Z,8.20
2022-08-26T06:08:51.616Z,9.68
2022-08-26T06:09:38.752Z,10.60
2022-08-26T06:10:33.149Z,9.38
2022-08-26T06:11:26.922Z,9.43
2022-08-26T06:12:13.883Z,8.60
2022-08-26T06:13:09.234Z,10.00
2022-08-26T06:14:03.996Z,9.00
2022-08-26T06:14:51.423Z,9.15
2022-08-26T06:15:46.330Z,9.18
2022-08-26T06:16:35.957Z,8.90
2022-08-26T06:17:22.760Z,10.13
2022-08-26T06:18:10.691Z,9.32
2022-08-26T06:18:57.832Z,9.23
2022-08-26T06:19:44.675Z,9.10
2022-08-26T06:20:32.290Z,9.40
2022-08-26T06:21:32.502Z,9.80
2022-08-26T06:22:38.531Z,9.98
2022-08-26T06:23:46.326Z,10.05
2022-08-26T06:24:52.142Z,9.95
2022-08-26T06:25:39.410Z,9.15
2022-08-26T06:26:26.597Z,9.32
2022-08-26T06:27:15.163Z,10.13
2022-08-26T06:28:02.500Z,10.10
2022-08-26T06:28:50.082Z,9.93
2022-08-26T06:29:37.811Z,10.48
2022-08-26T06:30:24.805Z,10.70
2022-08-26T06:31:12.856Z,9.63
2022-08-26T06:32:00.541Z,10.05
2022-08-26T06:32:47.483Z,10.15
2022-08-26T06:33:36.581Z,10.25
2022-08-26T06:34:29.787Z,10.15
2022-08-26T06:35:17.343Z,9.80
2022-08-26T06:36:04.462Z,9.68
2022-08-26T06:36:53.112Z,9.50
2022-08-26T06:37:40.780Z,9.82
2022-08-26T06:38:28.974Z,9.32
2022-08-26T06:39:17.952Z,10.50
2022-08-26T06:40:07.830Z,9.23
2022-08-26T06:40:59.766Z,10.65
2022-08-26T06:41:46.903Z,9.70
2022-08-26T06:42:34.042Z,9.55
2022-08-26T06:43:23.973Z,10.68
2022-08-26T06:44:12.915Z,10.43
2022-08-26T06:44:59.948Z,10.32
2022-08-26T06:45:47.491Z,9.73
2022-08-26T06:46:35.107Z,9.77
2022-08-26T06:47:22.326Z,10.27
2022-08-26T06:48:09.339Z,10.02
2022-08-26T06:49:00.443Z,10.05
2022-08-26T06:49:47.466Z,10.45
2022-08-26T06:50:35.395Z,10.18
2022-08-26T06:51:26.432Z,10.98
2022-08-26T06:52:13.411Z,11.65
2022-08-26T06:53:00.283Z,11.40
2022-08-26T06:53:49.053Z,11.65
2022-08-26T06:54:37.233Z,11.10
2022-08-26T06:55:27.131Z,10.00
2022-08-26T06:56:17.113Z,11.73
2022-08-26T06:57:04.055Z,10.95
2022-08-26T06:57:51.081Z,11.20
2022-08-26T06:58:39.394Z,10.70
2022-08-26T06:59:28.501Z,10.93
2022-08-26T07:00:18.481Z,11.05
2022-08-26T07:01:15.849Z,11.15
2022-08-26T07:02:06.307Z,11.05
2022-08-26T07:02:55.196Z,11.02
2022-08-26T07:03:42.132Z,11.35
2022-08-26T07:04:34.831Z,11.60
2022-08-26T07:05:22.632Z,12.60
2022-08-26T07:06:11.030Z,13.18
2022-08-26T07:06:58.131Z,11.27
2022-08-26T07:07:45.044Z,11.80
2022-08-26T07:08:31.992Z,11.00
2022-08-26T07:09:22.951Z,11.55
2022-08-26T07:10:10.301Z,12.32
2022-08-26T07:10:57.373Z,11.70
2022-08-26T07:11:44.820Z,12.88
2022-08-26T07:12:32.435Z,11.70
2022-08-26T07:13:29.969Z,11.50
2022-08-26T07:14:21.199Z,11.98
2022-08-26T07:15:08.891Z,12.68
2022-08-26T07:15:58.195Z,12.37
2022-08-26T07:16:50.727Z,12.25
2022-08-26T07:17:39.011Z,12.80
2022-08-26T07:18:27.358Z,12.07
2022-08-26T07:19:15.636Z,11.90
2022-08-26T07:20:07.570Z,12.40
2022-08-26T07:20:54.880Z,12.25
2022-08-26T07:21:43.159Z,12.85
2022-08-26T07:22:30.543Z,12.13
2022-08-26T07:23:17.398Z,12.32
2022-08-26T07:24:04.636Z,12.43
2022-08-26T07:24:51.556Z,12.60
2022-08-26T07:25:40.179Z,11.88
2022-08-26T07:26:29.330Z,12.10
2022-08-26T07:27:17.149Z,12.02
2022-08-26T07:28:04.462Z,12.18
2022-08-26T07:28:53.486Z,11.43
2022-08-26T07:29:41.024Z,12.85
2022-08-26T07:30:27.876Z,11.98
2022-08-26T07:31:15.896Z,13.10
2022-08-26T07:32:03.502Z,13.80
2022-08-26T07:32:50.466Z,13.70
2022-08-26T07:33:39.117Z,12.93
2022-08-26T07:34:26.304Z,11.15
2022-08-26T07:35:14.318Z,12.32
2022-08-26T07:36:01.388Z,12.02
2022-08-26T07:36:51.806Z,13.00
2022-08-26T07:37:39.338Z,11.60
2022-08-26T07:38:26.326Z,11.30
2022-08-26T07:39:13.166Z,11.15
2022-08-26T07:40:00.231Z,11.55
2022-08-26T07:40:48.229Z,11.25
2022-08-26T07:41:36.723Z,12.95
2022-08-26T07:42:24.063Z,12.07
2022-08-26T07:43:11.008Z,12.18
2022-08-26T07:43:57.806Z,11.60
2022-08-26T07:44:45.855Z,11.45
2022-08-26T07:45:32.985Z,11.88
2022-08-26T07:46:27.147Z,11.77
2022-08-26T07:47:24.870Z,12.50
2022-08-26T07:48:13.308Z,12.20
2022-08-26T07:49:00.267Z,12.25
2022-08-26T07:49:47.260Z,11.98
2022-08-26T07:50:49.011Z,12.40
2022-08-26T07:51:37.845Z,11.63
2022-08-26T07:52:27.717Z,11.15
2022-08-26T07:53:15.069Z,11.40
2022-08-26T07:54:07.013Z,11.57
2022-08-26T07:54:54.236Z,11.12
2022-08-26T07:55:41.357Z,10.90
2022-08-26T07:56:28.438Z,12.27
2022-08-26T07:57:15.306Z,10.38
2022-08-26T07:58:06.540Z,10.25
2022-08-26T07:58:54.422Z,11.00
2022-08-26T07:59:41.607Z,10.90
2022-08-26T08:00:29.820Z,9.60
2022-08-26T08:01:16.807Z,10.23
2022-08-26T08:02:03.917Z,10.68
2022-08-26T08:02:51.526Z,10.38
2022-08-26T08:03:42.456Z,9.93
2022-08-26T08:04:29.597Z,10.88
2022-08-26T08:05:18.707Z,10.15
2022-08-26T08:06:05.800Z,10.68
2022-08-26T08:06:53.296Z,10.82
2022-08-26T08:07:44.839Z,10.63
2022-08-26T08:08:33.096Z,10.30
2022-08-26T08:09:20.086Z,10.95
2022-08-26T08:10:11.634Z,10.75
2022-08-26T08:10:58.841Z,11.27
2022-08-26T08:11:46.868Z,10.80
2022-08-26T08:12:35.276Z,10.55
2022-08-26T08:13:22.797Z,10.35
2022-08-26T08:14:11.836Z,9.93
2022-08-26T08:14:58.857Z,10.00
2022-08-26T08:15:46.386Z,9.95
2022-08-26T08:16:33.602Z,9.20
2022-08-26T08:17:21.767Z,9.55
2022-08-26T08:18:15.434Z,8.90
2022-08-26T08:19:02.846Z,9.20
2022-08-26T08:19:50.696Z,9.73
2022-08-26T08:20:37.616Z,8.80
2022-08-26T08:21:26.272Z,8.52
2022-08-26T08:22:17.386Z,10.32
2022-08-26T08:23:04.718Z,9.70
2022-08-26T08:23:56.439Z,9.73
2022-08-26T08:24:43.776Z,8.80
2022-08-26T08:25:32.526Z,9.90
2022-08-26T08:26:19.653Z,8.95
2022-08-26T08:27:07.057Z,9.38
2022-08-26T08:27:55.616Z,9.35
2022-08-26T08:28:44.056Z,8.60
2022-08-26T08:29:30.993Z,9.65
2022-08-26T08:30:20.886Z,8.98
2022-08-26T08:31:11.474Z,8.82
2022-08-26T08:31:59.988Z,9.07
2022-08-26T08:32:47.426Z,9.45
2022-08-26T08:33:35.481Z,8.75
2022-08-26T08:34:23.007Z,8.85
2022-08-26T08:35:12.619Z,8.85
2022-08-26T08:36:00.420Z,9.02
2022-08-26T08:36:47.752Z,8.65
2022-08-26T08:37:36.668Z,8.60
2022-08-26T08:38:24.076Z,8.52
2022-08-26T08:39:11.926Z,8.35
2022-08-26T08:39:59.827Z,8.35
2022-08-26T08:40:47.136Z,8.68
2022-08-26T08:41:53.528Z,8.55
2022-08-26T08:43:24.885Z,8.65
2022-08-26T08:45:23.737Z,9.05
2022-08-26T08:46:13.276Z,7.72
2022-08-26T08:47:06.226Z,8.38
2022-08-26T08:47:59.757Z,9.63
2022-08-26T08:48:53.940Z,9.40
2022-08-26T08:49:42.316Z,8.52
2022-08-26T08:50:43.441Z,8.57
2022-08-26T08:51:50.577Z,9.15
2022-08-26T08:52:38.166Z,8.23
2022-08-26T08:53:36.025Z,8.50
2022-08-26T08:54:26.526Z,9.10
2022-08-26T08:55:17.751Z,8.93
2022-08-26T08:56:10.876Z,8.07
2022-08-26T08:57:04.046Z,9.10
2022-08-26T08:58:02.447Z,8.07
2022-08-26T08:59:07.548Z,8.63
2022-08-26T09:00:05.737Z,9.15
2022-08-26T09:01:00.263Z,8.60
2022-08-26T09:01:52.447Z,7.85
2022-08-26T09:03:31.116Z,8.50
2022-08-26T09:04:26.986Z,9.48
2022-08-26T09:05:25.573Z,8.70
2022-08-26T09:06:18.864Z,7.50
2022-08-26T09:07:11.035Z,7.50
2022-08-26T09:08:11.295Z,8.05
2022-08-26T09:09:50.257Z,8.35
2022-08-26T09:10:45.128Z,7.72
2022-08-26T09:11:32.713Z,7.28
2022-08-26T09:12:29.846Z,7.25
2022-08-26T09:13:19.590Z,7.37
2022-08-26T09:14:13.236Z,7.15
2022-08-26T09:15:12.227Z,7.40
2022-08-26T09:16:06.897Z,7.45
2022-08-26T09:17:06.294Z,6.55
2022-08-26T09:18:06.696Z,6.60
2022-08-26T09:19:08.885Z,6.60
2022-08-26T09:20:06.277Z,7.47
2022-08-26T09:21:14.392Z,7.15
2022-08-26T09:22:04.738Z,7.35
2022-08-26T09:22:56.977Z,8.13
2022-08-26T09:23:47.005Z,6.68
2022-08-26T09:24:41.772Z,7.40
2022-08-26T09:25:46.122Z,7.97
2022-08-26T09:26:39.581Z,7.68
2022-08-26T09:27:50.431Z,6.70
2022-08-26T09:28:42.503Z,7.03
2022-08-26T09:29:32.648Z,6.70
2022-08-26T09:30:30.590Z,6.55
2022-08-26T09:31:24.349Z,6.65
2022-08-26T09:32:24.450Z,6.53
2022-08-26T09:33:17.067Z,6.12
2022-08-26T09:34:22.617Z,6.35
2022-08-26T09:35:32.120Z,6.50
2022-08-26T09:36:26.386Z,6.50
2022-08-26T09:37:14.118Z,6.32
2022-08-26T09:38:00.976Z,6.78
2022-08-26T09:38:52.414Z,6.50
2022-08-26T09:39:39.696Z,6.32
2022-08-26T09:40:34.643Z,6.65
2022-08-26T09:41:34.035Z,7.22
2022-08-26T09:42:22.941Z,6.72
2022-08-26T09:43:22.150Z,6.37
2022-08-26T09:44:14.740Z,6.87
2022-08-26T09:45:06.716Z,6.37
2022-08-26T09:45:59.319Z,6.62
2022-08-26T09:46:54.716Z,6.62
2022-08-26T09:47:47.999Z,7.35
2022-08-26T09:48:37.196Z,7.35
2022-08-26T09:49:37.496Z,6.93
2022-08-26T09:50:33.866Z,7.62
2022-08-26T09:51:23.487Z,7.55
2022-08-26T09:52:22.468Z,7.28
2022-08-26T09:53:12.939Z,7.22
2022-08-26T09:54:02.040Z,7.70
2022-08-26T09:55:24.196Z,7.28
2022-08-26T09:56:23.666Z,7.10
2022-08-26T09:57:21.328Z,6.68
2022-08-26T09:58:09.588Z,7.10
2022-08-26T09:58:57.364Z,7.68
2022-08-26T09:59:44.559Z,7.70
2022-08-26T10:00:39.200Z,7.57
2022-08-26T10:01:36.194Z,6.90
2022-08-26T10:02:32.518Z,7.37
2022-08-26T10:03:38.696Z,7.22
2022-08-26T10:04:30.887Z,7.50
2022-08-26T10:05:30.187Z,7.90
2022-08-26T10:06:17.067Z,7.78
2022-08-26T10:07:10.276Z,7.30
2022-08-26T10:07:59.594Z,7.15
2022-08-26T10:08:50.379Z,7.12
2022-08-26T10:09:43.268Z,7.22
2022-08-26T10:10:37.049Z,7.45
2022-08-26T10:11:35.496Z,6.95
2022-08-26T10:12:23.313Z,7.72
2022-08-26T10:13:17.136Z,7.87
2022-08-26T10:14:39.976Z,8.23
2022-08-26T10:15:27.838Z,7.82
2022-08-26T10:16:24.334Z,7.30
2022-08-26T10:17:32.467Z,8.07
2022-08-26T10:18:29.695Z,7.72
2022-08-26T10:19:23.207Z,7.30
2022-08-26T10:20:23.654Z,7.10
2022-08-26T10:21:18.003Z,7.43
2022-08-26T10:22:26.366Z,7.40
2022-08-26T10:23:26.466Z,8.93
2022-08-26T10:24:17.761Z,7.62
2022-08-26T10:25:12.119Z,7.47
2022-08-26T10:26:21.136Z,7.65
2022-08-26T10:27:51.010Z,8.52
2022-08-26T10:28:50.336Z,8.10
2022-08-26T10:29:46.461Z,7.62
2022-08-26T10:30:46.596Z,7.15
2022-08-26T10:31:58.756Z,7.97
2022-08-26T10:32:54.077Z,7.87
2022-08-26T10:33:41.082Z,7.57
2022-08-26T10:34:27.967Z,7.50
2022-08-26T10:35:16.962Z,7.80
2022-08-26T10:36:07.306Z,7.30
2022-08-26T10:37:13.536Z,7.57
2022-08-26T10:38:09.506Z,7.60
2022-08-26T10:38:59.176Z,7.18
2022-08-26T10:41:11.886Z,7.25
2022-08-26T10:42:07.914Z,7.60
2022-08-26T10:43:11.403Z,7.95
2022-08-26T10:44:00.427Z,7.20
2022-08-26T10:44:48.527Z,8.00
2022-08-26T10:45:42.446Z,7.15
2022-08-26T10:46:39.989Z,7.55
2022-08-26T10:47:49.127Z,7.53
2022-08-26T10:48:53.709Z,6.68
2022-08-26T10:49:42.036Z,6.80
2022-08-26T10:50:47.667Z,7.15
2022-08-26T10:51:42.273Z,6.65
2022-08-26T10:52:53.188Z,6.50
2022-08-26T10:53:56.079Z,6.72
2022-08-26T10:54:52.946Z,8.07
2022-08-26T10:56:06.572Z,7.53
2022-08-26T10:57:36.500Z,7.32
2022-08-26T10:58:32.926Z,7.82
2022-08-26T10:59:47.703Z,7.18
2022-08-26T11:01:01.747Z,7.30
2022-08-26T11:02:25.275Z,7.68
2022-08-26T11:04:00.505Z,7.87
2022-08-26T11:04:56.382Z,7.75
2022-08-26T11:05:43.366Z,7.50
2022-08-26T11:06:31.670Z,6.57
2022-08-26T11:07:32.001Z,7.05
2022-08-26T11:08:21.828Z,8.63
2022-08-26T11:09:09.402Z,7.68
2022-08-26T11:09:58.315Z,7.12
2022-08-26T11:10:59.132Z,6.25
2022-08-26T11:11:48.379Z,6.80
2022-08-26T11:12:35.391Z,7.03
2022-08-26T11:13:57.560Z,7.55
2022-08-26T11:14:58.863Z,7.30
2022-08-26T11:15:45.985Z,7.35
2022-08-26T11:16:44.859Z,7.32
2022-08-26T11:17:47.066Z,6.87
2022-08-26T11:18:42.386Z,7.03
2022-08-26T11:20:00.920Z,7.30